Time;durP1;ratioP1;P1;durP2;ratioP2;P2;SDS_P1;SDS_P2;PMS_P1;PMS_P2;Temp;Humidity;BMP_temperature;BMP_pressure;BME280_temperature;BME280_humidity;BME280_pressure;Samples;Min_cycle;Max_cycle;Signal;HPM_P1;HPM_P2
2021/11/09 00:01:08;;;;;;;12.57;6.75;;;;;;;2.40;100.00;97195.16;5057698;28;20092;-59
2021/11/09 00:03:44;;;;;;;10.10;7.47;;;;;;;2.74;100.00;97203.88;5049560;28;20075;-59
2021/11/09 00:06:19;;;;;;;11.55;7.47;;;;;;;2.77;100.00;97195.91;5037278;28;20073;-58
2021/11/09 00:08:54;;;;;;;15.50;7.60;;;;;;;2.83;100.00;97183.41;5041255;28;20549;-59
2021/11/09 00:11:25;;;;;;;14.48;7.72;;;;;;;2.76;100.00;97184.66;5038015;28;20069;-61
2021/11/09 00:13:53;;;;;;;;;;;;;;;2.52;100.00;97194.53;5041617;28;20791;-56
2021/11/09 00:16:22;;;;;;;10.73;6.90;;;;;;;2.60;100.00;97181.13;5040879;28;20403;-61
2021/11/09 00:18:50;;;;;;;11.02;7.75;;;;;;;2.41;100.00;97191.66;5043741;28;20078;-56
2021/11/09 00:21:20;;;;;;;11.95;7.38;;;;;;;2.45;100.00;97187.97;5048970;28;20552;-59
2021/11/09 00:23:48;;;;;;;13.52;7.80;;;;;;;2.49;100.00;97193.84;5055403;28;20171;-60
2021/11/09 00:26:17;;;;;;;18.20;6.22;;;;;;;2.48;100.00;97190.41;5050002;28;20458;-56
2021/11/09 00:28:47;;;;;;;16.35;7.82;;;;;;;2.27;100.00;97187.13;5052171;28;20071;-58
2021/11/09 00:31:16;;;;;;;11.75;6.85;;;;;;;2.38;100.00;97186.59;5051689;28;20462;-57
2021/11/09 00:33:45;;;;;;;13.63;8.07;;;;;;;2.40;100.00;97189.09;5049355;28;20550;-58
2021/11/09 00:36:13;;;;;;;20.25;7.72;;;;;;;2.48;100.00;97193.03;5052729;28;20068;-56
2021/11/09 00:38:43;;;;;;;14.48;8.05;;;;;;;2.44;100.00;97198.44;5052313;28;20056;-55
2021/11/09 00:41:11;;;;;;;10.90;7.22;;;;;;;2.43;100.00;97200.19;5040220;28;20486;-57
2021/11/09 00:43:40;;;;;;;14.35;7.60;;;;;;;2.45;100.00;97206.19;5049030;28;20088;-52
2021/11/09 00:46:10;;;;;;;12.85;7.72;;;;;;;2.55;100.00;97201.38;5049311;28;20084;-59
2021/11/09 00:48:38;;;;;;;12.27;7.32;;;;;;;2.45;100.00;97202.75;5029403;28;20064;-57
2021/11/09 00:51:07;;;;;;;9.32;7.00;;;;;;;2.53;100.00;97200.59;5030210;28;20095;-57
2021/11/09 00:53:35;;;;;;;17.65;7.88;;;;;;;2.70;100.00;97213.59;5042625;28;20060;-59
2021/11/09 00:56:05;;;;;;;16.80;7.65;;;;;;;2.66;100.00;97211.25;5052895;28;20068;-58
2021/11/09 00:58:33;;;;;;;22.42;8.50;;;;;;;2.27;100.00;97209.66;5053102;28;20080;-56
2021/11/09 01:01:02;;;;;;;26.55;8.68;;;;;;;2.37;100.00;97213.50;5048982;28;20076;-53
2021/11/09 01:03:32;;;;;;;25.45;9.45;;;;;;;2.58;100.00;97206.38;5038204;28;20267;-59
2021/11/09 01:06:00;;;;;;;24.48;8.60;;;;;;;2.46;100.00;97205.25;5044460;28;20639;-60
2021/11/09 01:08:30;;;;;;;25.13;8.90;;;;;;;2.27;100.00;97202.75;5049856;28;20107;-59
2021/11/09 01:10:59;;;;;;;25.95;9.48;;;;;;;2.35;100.00;97192.78;5047668;28;20716;-57
2021/11/09 01:13:29;;;;;;;21.40;9.35;;;;;;;2.43;100.00;97191.56;5052271;28;20073;-59
2021/11/09 01:15:58;;;;;;;11.73;6.83;;;;;;;2.54;100.00;97195.28;5059311;28;20072;-56
2021/11/09 01:18:29;;;;;;;13.15;6.90;;;;;;;2.52;100.00;97191.09;5042038;28;20480;-59
2021/11/09 01:21:00;;;;;;;15.13;7.68;;;;;;;2.58;100.00;97194.25;5034681;28;20068;-57
2021/11/09 01:23:29;;;;;;;16.30;7.95;;;;;;;2.51;100.00;97192.00;5056769;28;20148;-55
2021/11/09 01:25:57;;;;;;;26.10;8.45;;;;;;;2.52;100.00;97185.91;5052578;28;20076;-57
2021/11/09 01:28:27;;;;;;;29.98;8.38;;;;;;;2.52;100.00;97188.50;5052937;28;20072;-59
2021/11/09 01:30:55;;;;;;;22.23;8.70;;;;;;;2.51;100.00;97186.78;5037479;28;20079;-55
2021/11/09 01:33:24;;;;;;;17.00;8.88;;;;;;;2.40;100.00;97174.31;5053182;28;20064;-55
2021/11/09 01:35:53;;;;;;;11.82;8.27;;;;;;;2.32;100.00;97174.72;5053861;28;20459;-56
2021/11/09 01:38:23;;;;;;;13.13;8.23;;;;;;;2.25;100.00;97175.09;5052391;28;20136;-57
2021/11/09 01:40:52;;;;;;;13.88;8.68;;;;;;;2.22;100.00;97173.47;5051483;28;20471;-57
2021/11/09 01:43:22;;;;;;;21.15;9.15;;;;;;;2.32;100.00;97182.50;5055924;28;20076;-59
2021/11/09 01:45:50;;;;;;;32.43;9.17;;;;;;;2.43;100.00;97178.53;5032076;28;22429;-59
2021/11/09 01:48:20;;;;;;;21.48;9.07;;;;;;;2.51;100.00;97192.88;5033026;28;20068;-55
2021/11/09 01:50:51;;;;;;;19.00;9.65;;;;;;;2.63;100.00;97193.16;5034544;28;20069;-52
2021/11/09 01:53:21;;;;;;;21.40;10.02;;;;;;;2.50;100.00;97198.97;5034838;28;20569;-60
2021/11/09 01:55:52;;;;;;;22.73;10.10;;;;;;;2.55;100.00;97190.94;5026698;28;20526;-59
2021/11/09 01:58:21;;;;;;;16.88;9.30;;;;;;;2.65;100.00;97196.50;5032977;28;20108;-58
2021/11/09 02:00:51;;;;;;;14.60;9.15;;;;;;;2.39;100.00;97190.88;5034761;28;21297;-56
2021/11/09 02:03:21;;;;;;;15.40;8.68;;;;;;;2.00;100.00;97184.09;5032112;28;20186;-57
2021/11/09 02:05:50;;;;;;;14.90;8.35;;;;;;;1.83;100.00;97187.50;5030061;28;20069;-55
2021/11/09 02:08:19;;;;;;;16.65;8.35;;;;;;;2.20;100.00;97171.88;5030934;28;20065;-59
2021/11/09 02:10:49;;;;;;;12.95;8.18;;;;;;;1.92;100.00;97175.81;5037026;28;20069;-57
2021/11/09 02:13:22;;;;;;;13.50;9.00;;;;;;;2.28;100.00;97178.38;5028950;28;20076;-58
2021/11/09 02:15:51;;;;;;;19.27;8.68;;;;;;;2.44;100.00;97183.66;5033521;28;20065;-56
2021/11/09 02:18:21;;;;;;;15.70;9.00;;;;;;;2.43;100.00;97179.38;5031813;28;20073;-59
2021/11/09 02:20:56;;;;;;;12.02;8.20;;;;;;;2.29;100.00;97177.47;5030269;28;20080;-54
2021/11/09 02:23:24;;;;;;;12.02;8.10;;;;;;;2.47;100.00;97175.69;5037274;28;20123;-58
2021/11/09 02:25:54;;;;;;;14.38;8.82;;;;;;;2.20;100.00;97187.47;5027537;28;20448;-57
2021/11/09 02:28:23;;;;;;;12.43;8.30;;;;;;;1.88;100.00;97189.88;5037883;28;20057;-58
2021/11/09 02:30:51;;;;;;;10.40;8.00;;;;;;;2.15;100.00;97192.91;5034955;28;20507;-55
2021/11/09 02:33:20;;;;;;;12.98;8.45;;;;;;;2.22;100.00;97193.47;5035665;28;20096;-56
2021/11/09 02:35:50;;;;;;;11.02;8.32;;;;;;;2.20;100.00;97188.31;5030590;28;20088;-56
2021/11/09 02:38:20;;;;;;;15.02;9.57;;;;;;;2.43;100.00;97200.19;5015822;28;20474;-55
2021/11/09 02:40:48;;;;;;;14.60;9.07;;;;;;;2.51;100.00;97203.28;5007892;28;20492;-58
2021/11/09 02:43:18;;;;;;;25.30;8.63;;;;;;;2.37;100.00;97213.50;5025303;28;20081;-59
2021/11/09 02:45:56;;;;;;;15.13;8.45;;;;;;;2.40;100.00;97207.31;5008584;28;20407;-57
2021/11/09 02:48:28;;;;;;;17.00;9.15;;;;;;;2.01;100.00;97211.78;5009153;28;20682;-58
2021/11/09 02:51:02;;;;;;;16.27;8.82;;;;;;;1.74;100.00;97205.28;5015710;28;20065;-55
2021/11/09 02:53:36;;;;;;;13.70;9.07;;;;;;;1.79;100.00;97211.13;5013717;28;20084;-61
2021/11/09 02:56:11;;;;;;;13.63;9.23;;;;;;;1.81;100.00;97209.28;4999952;28;20074;-58
2021/11/09 02:58:45;;;;;;;15.15;8.95;;;;;;;1.74;100.00;97213.09;5022325;28;20120;-56
2021/11/09 03:01:19;;;;;;;15.35;8.70;;;;;;;1.59;100.00;97206.88;5031007;28;20088;-56
2021/11/09 03:03:55;;;;;;;17.63;9.10;;;;;;;1.88;100.00;97206.31;5026032;28;20632;-57
2021/11/09 03:06:30;;;;;;;14.68;8.90;;;;;;;1.91;100.00;97207.94;5027757;28;20053;-55
2021/11/09 03:09:04;;;;;;;12.25;8.20;;;;;;;1.80;100.00;97205.84;5021499;28;20142;-58
2021/11/09 03:11:33;;;;;;;14.32;8.02;;;;;;;1.63;100.00;97204.03;5025738;28;20065;-58
2021/11/09 03:14:02;;;;;;;10.75;7.97;;;;;;;1.68;100.00;97201.22;5021791;28;20457;-60
2021/11/09 03:16:34;;;;;;;12.55;8.27;;;;;;;1.43;100.00;97204.97;5027852;28;20472;-60
2021/11/09 03:19:10;;;;;;;11.13;8.25;;;;;;;1.29;100.00;97209.09;5030285;28;20060;-59
2021/11/09 03:47:00;;;;;;;;;;;;;;;1.60;100.00;97211.13;4947632;28;20524;-56
2021/11/09 03:49:31;;;;;;;12.63;8.60;;;;;;;1.52;100.00;97221.91;4975443;28;20089;-57
2021/11/09 03:52:04;;;;;;;12.57;9.23;;;;;;;1.57;100.00;97219.91;4995842;28;20081;-58
2021/11/09 03:54:34;;;;;;;11.45;8.80;;;;;;;1.65;100.00;97217.81;5009254;28;20065;-59
2021/11/09 03:57:08;;;;;;;12.82;9.10;;;;;;;1.49;100.00;97222.03;5004498;28;20065;-55
2021/11/09 03:59:51;;;;;;;15.70;9.25;;;;;;;1.44;100.00;97211.00;5016958;28;20072;-58
2021/11/09 04:02:26;;;;;;;12.77;9.70;;;;;;;1.50;100.00;97213.31;5032476;28;20073;-61
2021/11/09 04:04:57;;;;;;;14.80;9.10;;;;;;;1.60;100.00;97217.19;5024689;28;20073;-59
2021/11/09 04:07:32;;;;;;;14.30;9.75;;;;;;;1.41;100.00;97221.53;5027999;28;20547;-59
2021/11/09 04:10:18;;;;;;;14.45;9.82;;;;;;;1.21;100.00;97221.59;5036606;28;20068;-57
2021/11/09 04:12:54;;;;;;;13.30;9.10;;;;;;;1.15;100.00;97231.34;4997865;28;20069;-57
2021/11/09 04:21:03;;;;;;;17.30;9.40;;;;;;;1.16;100.00;97233.03;5021569;28;20111;-58
2021/11/09 04:29:20;;;;;;;18.23;10.60;;;;;;;1.60;100.00;97218.94;5017907;28;20081;-59
2021/11/09 04:32:09;;;;;;;17.75;10.15;;;;;;;1.69;100.00;97228.91;5012661;28;20602;-59
2021/11/09 05:02:55;;;;;;;21.15;12.00;;;;;;;1.65;100.00;97246.44;5030935;28;20072;-57
2021/11/09 05:08:27;;;;;;;20.65;11.70;;;;;;;1.88;100.00;97244.50;5005766;28;20060;-63
2021/11/09 05:10:57;;;;;;;21.83;12.35;;;;;;;1.95;100.00;97245.06;5015582;28;20069;-57
2021/11/09 05:13:26;;;;;;;22.73;12.57;;;;;;;1.96;100.00;97232.00;5032796;28;20447;-60
2021/11/09 05:15:56;;;;;;;22.92;12.82;;;;;;;1.74;100.00;97246.91;5015266;28;20076;-59
2021/11/09 05:18:25;;;;;;;;;;;;;;;1.82;100.00;97237.81;5030008;28;20064;-61
2021/11/09 05:20:54;;;;;;;27.65;13.23;;;;;;;1.86;100.00;97230.75;5028433;28;20366;-60
2021/11/09 05:23:22;;;;;;;35.05;15.05;;;;;;;1.86;100.00;97241.16;5019673;28;20073;-60
2021/11/09 05:25:52;;;;;;;27.52;13.43;;;;;;;1.71;100.00;97249.63;5029084;28;20072;-59
2021/11/09 05:28:20;;;;;;;40.28;14.52;;;;;;;1.42;100.00;97251.81;5032231;28;20080;-61
2021/11/09 05:30:50;;;;;;;43.40;12.77;;;;;;;1.29;100.00;97256.72;5021427;28;20508;-61
2021/11/09 05:33:22;;;;;;;27.73;12.77;;;;;;;1.51;100.00;97258.34;5027952;28;20080;-61
2021/11/09 05:35:51;;;;;;;38.92;14.40;;;;;;;1.37;100.00;97252.00;5019616;28;20062;-62
2021/11/09 05:38:25;;;;;;;30.88;13.60;;;;;;;1.88;100.00;97247.09;5025160;28;20519;-62
2021/11/09 05:40:56;;;;;;;32.08;14.55;;;;;;;1.82;100.00;97240.41;5017592;28;20474;-58
2021/11/09 05:43:25;;;;;;;31.27;14.50;;;;;;;1.56;100.00;97251.19;5021790;28;20081;-62
2021/11/09 05:45:53;;;;;;;42.72;14.23;;;;;;;1.55;100.00;97244.28;5006877;28;20092;-61
2021/11/09 05:48:23;;;;;;;33.20;15.30;;;;;;;1.69;100.00;97238.44;5023390;28;20068;-60
2021/11/09 05:50:52;;;;;;;42.75;15.00;;;;;;;1.53;100.00;97244.38;5031401;28;20057;-59
2021/11/09 05:53:20;;;;;;;41.83;15.18;;;;;;;1.62;100.00;97237.91;5032762;28;20069;-63
2021/11/09 05:55:49;;;;;;;31.63;14.23;;;;;;;1.67;100.00;97241.13;5031321;28;20061;-64
2021/11/09 05:58:17;;;;;;;38.05;14.82;;;;;;;1.95;100.00;97240.69;5033795;28;20483;-58
2021/11/09 06:00:46;;;;;;;28.08;14.73;;;;;;;1.90;100.00;97242.69;5027569;28;20072;-61
2021/11/09 06:03:17;;;;;;;35.85;14.27;;;;;;;1.63;100.00;97250.00;5023537;28;20144;-59
2021/11/09 06:05:46;;;;;;;;;;;;;;;1.74;100.00;97245.13;5028411;28;20058;-61
2021/11/09 06:08:15;;;;;;;36.58;14.07;;;;;;;1.53;100.00;97259.13;5020995;28;19995;-61
2021/11/09 06:10:43;;;;;;;29.60;14.23;;;;;;;1.79;100.00;97255.31;5034978;28;20077;-59
2021/11/09 06:13:11;;;;;;;29.08;13.50;;;;;;;1.54;100.00;97256.44;5031627;28;20077;-61
2021/11/09 06:15:40;;;;;;;25.35;12.68;;;;;;;1.53;100.00;97251.34;5025686;28;20476;-63
2021/11/09 06:18:09;;;;;;;26.92;11.95;;;;;;;1.92;100.00;97250.41;5026438;28;20092;-61
2021/11/09 06:20:37;;;;;;;25.70;12.00;;;;;;;2.09;100.00;97256.47;5030860;28;20061;-59
2021/11/09 06:23:07;;;;;;;20.65;11.38;;;;;;;1.83;100.00;97252.53;5031667;28;20081;-61
2021/11/09 06:25:36;;;;;;;27.20;11.48;;;;;;;1.68;100.00;97253.22;5025285;28;20099;-60
2021/11/09 06:28:06;;;;;;;18.27;11.18;;;;;;;1.83;100.00;97257.72;5024477;28;20602;-62
2021/11/09 06:30:35;;;;;;;18.58;11.18;;;;;;;1.80;100.00;97268.25;5032095;28;20069;-61
2021/11/09 06:33:03;;;;;;;16.17;10.55;;;;;;;2.17;100.00;97274.34;5026887;28;20436;-61
2021/11/09 06:35:32;;;;;;;28.00;12.05;;;;;;;2.05;100.00;97280.97;5028546;28;20053;-60
2021/11/09 06:38:00;;;;;;;23.60;12.38;;;;;;;1.88;100.00;97283.50;5028259;28;20033;-61
2021/11/09 06:40:30;;;;;;;21.15;10.88;;;;;;;2.11;100.00;97291.09;5027708;28;20093;-57
2021/11/09 06:42:59;;;;;;;28.05;12.40;;;;;;;1.94;100.00;97288.44;5030785;28;20084;-61
2021/11/09 06:45:27;;;;;;;19.42;11.18;;;;;;;2.08;100.00;97296.44;5028729;28;20075;-61
2021/11/09 06:47:56;;;;;;;22.20;11.18;;;;;;;1.73;100.00;97297.22;5028679;28;20061;-61
2021/11/09 06:50:25;;;;;;;22.15;11.13;;;;;;;2.19;100.00;97298.53;5028269;28;20069;-62
2021/11/09 06:52:55;;;;;;;26.58;11.63;;;;;;;2.36;100.00;97302.94;5023746;28;20042;-62
2021/11/09 06:55:23;;;;;;;25.33;11.65;;;;;;;2.24;100.00;97303.53;5022078;28;20069;-59
2021/11/09 06:57:53;;;;;;;20.20;11.80;;;;;;;2.36;100.00;97301.16;5029865;28;20488;-61
2021/11/09 07:00:22;;;;;;;17.70;11.65;;;;;;;2.17;100.00;97305.56;5027865;28;20089;-64
2021/11/09 07:02:51;;;;;;;17.23;11.60;;;;;;;2.60;100.00;97309.56;5026715;28;20379;-61
2021/11/09 07:05:21;;;;;;;20.25;11.02;;;;;;;2.73;100.00;97301.16;5027947;28;20072;-64
2021/11/09 07:07:50;;;;;;;20.80;11.80;;;;;;;2.47;100.00;97310.22;5023260;28;20069;-62
2021/11/09 07:10:19;;;;;;;16.80;10.90;;;;;;;2.49;100.00;97308.41;5031083;28;20084;-59
2021/11/09 07:12:47;;;;;;;15.73;11.20;;;;;;;2.59;100.00;97320.91;5027980;28;20044;-60
2021/11/09 07:15:18;;;;;;;15.82;10.93;;;;;;;2.49;100.00;97319.66;5021364;28;20073;-59
2021/11/09 07:17:47;;;;;;;17.63;11.48;;;;;;;2.62;100.00;97319.91;5026985;28;20065;-62
2021/11/09 07:20:18;;;;;;;18.95;12.05;;;;;;;3.05;100.00;97318.63;5024806;28;20482;-61
2021/11/09 07:22:48;;;;;;;19.33;13.10;;;;;;;3.02;100.00;97317.94;5023407;28;20511;-60
2021/11/09 07:25:17;;;;;;;17.25;11.90;;;;;;;2.99;100.00;97321.53;5029984;28;20530;-62
2021/11/09 07:27:46;;;;;;;19.23;13.52;;;;;;;3.01;100.00;97317.09;5026016;28;20069;-58
2021/11/09 07:30:15;;;;;;;16.33;11.20;;;;;;;3.07;100.00;97321.16;5023360;28;20096;-61
2021/11/09 07:32:46;;;;;;;17.87;11.07;;;;;;;3.44;100.00;97325.34;5027127;28;20042;-62
2021/11/09 07:35:16;;;;;;;;;;;;;;;3.09;100.00;97332.31;5024159;28;20492;-62
2021/11/09 07:37:45;;;;;;;17.33;11.18;;;;;;;3.38;100.00;97332.63;5021892;28;20505;-62
2021/11/09 07:40:14;;;;;;;20.48;11.85;;;;;;;3.59;100.00;97330.69;5029684;28;20088;-59
2021/11/09 07:42:47;;;;;;;24.45;11.82;;;;;;;3.14;100.00;97324.31;5027314;28;20061;-61
2021/11/09 07:45:18;;;;;;;20.00;12.27;;;;;;;3.45;100.00;97326.19;5027541;28;20080;-63
2021/11/09 07:47:49;;;;;;;18.20;12.77;;;;;;;3.92;100.00;97326.28;5022919;28;20077;-57
2021/11/09 07:50:18;;;;;;;19.00;12.68;;;;;;;4.08;100.00;97326.28;5021007;28;20070;-60
2021/11/09 07:52:47;;;;;;;19.77;13.18;;;;;;;3.88;100.00;97318.69;5026897;28;20038;-63
2021/11/09 07:55:19;;;;;;;17.95;12.80;;;;;;;4.20;100.00;97323.03;5030022;28;20476;-62
2021/11/09 07:57:53;;;;;;;19.38;12.68;;;;;;;4.13;100.00;97316.47;5027359;28;20369;-62
2021/11/09 08:00:25;;;;;;;18.27;12.00;;;;;;;4.21;100.00;97321.25;5020609;28;20069;-61
2021/11/09 08:03:09;;;;;;;18.85;12.70;;;;;;;3.79;100.00;97325.25;5020772;28;20077;-63
2021/11/09 08:05:45;;;;;;;18.40;12.68;;;;;;;3.97;100.00;97321.66;5013941;28;20414;-63
2021/11/09 08:08:15;;;;;;;24.33;13.13;;;;;;;3.81;100.00;97312.97;5014762;28;20506;-63
2021/11/09 08:10:44;;;;;;;21.65;14.02;;;;;;;3.89;100.00;97309.94;5026596;28;20515;-62
2021/11/09 08:13:12;;;;;;;25.88;13.82;;;;;;;3.83;100.00;97310.28;5022213;28;20087;-61
2021/11/09 08:15:41;;;;;;;23.48;14.80;;;;;;;4.08;100.00;97308.03;5026983;28;20083;-60
2021/11/09 08:18:14;;;;;;;26.70;14.20;;;;;;;4.09;100.00;97308.84;5024516;28;20068;-61
2021/11/09 08:20:58;;;;;;;35.55;15.38;;;;;;;3.84;100.00;97310.19;5023797;28;20537;-62
2021/11/09 08:23:27;;;;;;;39.17;15.77;;;;;;;4.31;100.00;97308.53;5026546;28;20065;-60
2021/11/09 08:25:55;;;;;;;29.05;16.15;;;;;;;4.43;100.00;97306.06;5026838;28;20484;-61
2021/11/09 08:28:24;;;;;;;34.65;15.52;;;;;;;4.34;100.00;97309.22;5026434;28;20475;-61
2021/11/09 08:30:56;;;;;;;40.72;14.93;;;;;;;4.10;100.00;97311.41;5010580;28;20064;-57
2021/11/09 08:33:28;;;;;;;39.08;15.63;;;;;;;4.04;100.00;97311.72;5003346;28;20566;-59
2021/11/09 08:35:58;;;;;;;33.65;14.45;;;;;;;4.11;100.00;97305.25;5026530;28;20087;-56
2021/11/09 08:38:27;;;;;;;;;;;;;;;3.93;100.00;97306.25;5027111;28;20072;-59
2021/11/09 08:40:55;;;;;;;42.22;16.17;;;;;;;4.55;100.00;97303.72;5026165;28;20423;-59
2021/11/09 08:43:27;;;;;;;33.88;16.77;;;;;;;4.81;100.00;97316.13;5026729;28;20439;-60
2021/11/09 08:45:58;;;;;;;30.85;16.92;;;;;;;4.59;100.00;97319.13;5023488;28;20092;-57
2021/11/09 08:48:33;;;;;;;33.15;17.92;;;;;;;4.27;100.00;97310.47;5026356;28;20444;-56
2021/11/09 08:51:06;;;;;;;36.17;18.20;;;;;;;4.54;100.00;97323.75;5026709;28;20076;-56
2021/11/09 08:53:39;;;;;;;36.75;19.92;;;;;;;4.75;100.00;97325.16;5021352;28;20076;-57
2021/11/09 09:04:26;;;;;;;48.33;24.30;;;;;;;5.54;100.00;97331.03;5028199;28;20081;-61
2021/11/09 09:06:59;;;;;;;43.60;20.67;;;;;;;5.07;100.00;97325.06;5023932;28;20068;-55
2021/11/09 09:09:27;;;;;;;49.55;23.95;;;;;;;5.24;100.00;97322.31;5020075;28;20088;-58
2021/11/09 09:11:56;;;;;;;51.17;24.73;;;;;;;5.94;100.00;97319.84;5026127;28;20080;-61
2021/11/09 09:14:26;;;;;;;55.30;25.15;;;;;;;6.09;100.00;97332.94;5022473;28;20041;-62
2021/11/09 09:16:56;;;;;;;52.53;25.02;;;;;;;5.96;100.00;97329.41;5027567;28;20073;-61
2021/11/09 09:19:29;;;;;;;53.67;25.40;;;;;;;6.42;100.00;97322.13;5026642;28;20093;-60
2021/11/09 09:22:05;;;;;;;48.03;24.38;;;;;;;6.08;100.00;97331.25;5028511;28;20073;-58
2021/11/09 09:24:45;;;;;;;54.58;25.40;;;;;;;7.01;100.00;97322.63;5025992;28;20523;-58
2021/11/09 09:27:29;;;;;;;46.10;23.63;;;;;;;7.02;100.00;97326.97;5018041;28;20073;-61
2021/11/09 09:30:17;;;;;;;45.28;23.75;;;;;;;6.64;100.00;97334.66;5015195;28;20550;-57
2021/11/09 09:33:05;;;;;;;42.00;22.90;;;;;;;6.55;100.00;97330.88;5024863;28;20077;-60
2021/11/09 09:55:21;;;;;;;32.40;17.00;;;;;;;7.24;100.00;97326.38;5029351;28;20300;-58
2021/11/09 09:57:50;;;;;;;31.40;16.77;;;;;;;7.40;100.00;97322.69;5004429;28;20294;-60
2021/11/09 10:00:19;;;;;;;28.88;15.50;;;;;;;7.46;100.00;97328.38;5025353;28;20069;-55
2021/11/09 10:02:52;;;;;;;28.17;14.75;;;;;;;6.96;100.00;97319.50;5028440;28;20527;-58
2021/11/09 10:05:22;;;;;;;25.10;15.48;;;;;;;7.22;100.00;97322.16;5024179;28;20168;-59
2021/11/09 10:07:54;;;;;;;26.63;15.07;;;;;;;7.03;100.00;97328.63;5029130;28;20145;-59
2021/11/09 10:10:24;;;;;;;23.58;14.00;;;;;;;7.16;100.00;97325.19;5031345;28;20093;-60
2021/11/09 10:12:59;;;;;;;22.73;14.57;;;;;;;7.27;100.00;97318.28;5028231;28;21332;-58
2021/11/09 10:15:29;;;;;;;19.30;11.73;;;;;;;7.14;100.00;97320.03;5029040;28;20085;-60
2021/11/09 10:18:00;;;;;;;;;;;;;;;7.37;100.00;97324.59;5029920;28;20072;-64
2021/11/09 10:20:32;;;;;;;22.67;11.25;;;;;;;7.47;100.00;97316.94;5029313;28;19992;-58
2021/11/09 10:23:04;;;;;;;19.95;12.90;;;;;;;8.00;100.00;97311.56;5028875;28;20061;-59
2021/11/09 10:25:34;;;;;;;23.50;12.90;;;;;;;7.72;100.00;97310.03;5018342;28;20073;-60
2021/11/09 10:28:08;;;;;;;19.63;11.88;;;;;;;7.46;100.00;97306.53;5011240;28;20085;-60
2021/11/09 10:30:39;;;;;;;21.35;10.95;;;;;;;7.32;100.00;97308.31;5021301;28;20092;-62
2021/11/09 10:33:07;;;;;;;19.92;10.95;;;;;;;7.29;100.00;97312.94;5029541;28;20072;-59
2021/11/09 10:35:36;;;;;;;19.83;11.35;;;;;;;7.98;100.00;97302.94;5028633;28;20061;-61
2021/11/09 10:38:06;;;;;;;19.80;12.20;;;;;;;8.20;100.00;97299.66;5023146;28;20605;-60
2021/11/09 10:40:36;;;;;;;21.77;11.82;;;;;;;8.18;100.00;97298.91;5028531;28;20092;-60
2021/11/09 10:43:07;;;;;;;21.67;12.02;;;;;;;8.15;100.00;97299.13;5030869;28;20566;-59
2021/11/09 10:45:37;;;;;;;16.48;10.93;;;;;;;8.17;100.00;97294.59;5028493;28;20064;-58
2021/11/09 10:48:08;;;;;;;20.65;10.70;;;;;;;7.94;100.00;97286.56;5026136;28;20069;-61
2021/11/09 10:50:39;;;;;;;21.20;11.65;;;;;;;8.44;100.00;97287.41;5028219;28;20076;-59
2021/11/09 10:53:13;;;;;;;18.95;10.73;;;;;;;8.37;100.00;97291.41;5028170;28;20069;-59
2021/11/09 10:55:54;;;;;;;19.58;11.35;;;;;;;7.93;100.00;97297.19;5028710;28;20092;-60
2021/11/09 10:58:40;;;;;;;17.35;11.68;;;;;;;8.36;100.00;97302.84;5028490;28;20084;-58
2021/11/09 11:04:01;;;;;;;22.50;11.82;;;;;;;8.34;100.00;97310.00;5027407;28;20499;-61
2021/11/09 11:06:32;;;;;;;18.58;11.88;;;;;;;8.42;100.00;97302.44;5020656;28;20072;-61
2021/11/09 11:09:17;;;;;;;19.13;10.88;;;;;;;7.88;100.00;97307.16;5019016;28;20076;-59
2021/11/09 11:12:09;;;;;;;14.88;9.73;;;;;;;8.20;100.00;97297.84;5027436;28;20065;-57
2021/11/09 11:14:41;;;;;;;16.85;11.40;;;;;;;8.12;100.00;97288.81;5028396;28;20485;-57
2021/11/09 11:17:11;;;;;;;13.45;8.52;;;;;;;7.98;100.00;97281.91;5028024;28;20570;-59
2021/11/09 11:19:42;;;;;;;12.85;8.55;;;;;;;8.00;100.00;97283.50;5026568;28;20471;-56
2021/11/09 11:22:12;;;;;;;15.75;9.68;;;;;;;8.66;100.00;97284.03;5012109;28;20065;-57
2021/11/09 11:24:43;;;;;;;16.05;9.52;;;;;;;8.34;100.00;97281.09;5010072;28;20084;-55
2021/11/09 11:27:12;;;;;;;13.65;9.15;;;;;;;8.31;100.00;97283.94;5027905;28;20061;-61
2021/11/09 11:29:42;;;;;;;17.20;10.05;;;;;;;8.83;100.00;97285.44;5021609;28;20514;-58
2021/11/09 11:32:13;;;;;;;12.60;8.38;;;;;;;8.48;100.00;97274.88;5020869;28;20469;-58
2021/11/09 11:34:42;;;;;;;14.48;8.77;;;;;;;8.38;100.00;97273.88;5026374;28;20073;-61
2021/11/09 11:37:12;;;;;;;16.13;10.02;;;;;;;8.42;100.00;97259.53;5012039;28;20072;-58
2021/11/09 11:39:42;;;;;;;11.23;7.75;;;;;;;8.06;100.00;97261.22;5027430;28;20083;-61
2021/11/09 11:42:15;;;;;;;17.08;9.80;;;;;;;8.96;100.00;97259.91;5027208;28;20065;-60
2021/11/09 11:44:44;;;;;;;14.50;9.68;;;;;;;8.78;100.00;97261.28;5013071;28;20061;-58
2021/11/09 11:47:17;;;;;;;15.37;8.40;;;;;;;8.59;100.00;97260.94;5014418;28;20033;-58
2021/11/09 11:49:51;;;;;;;14.07;9.10;;;;;;;8.62;100.00;97253.66;5018651;28;20479;-58
2021/11/09 11:52:28;;;;;;;12.68;9.00;;;;;;;8.87;100.00;97255.31;5027971;28;20145;-61
2021/11/09 11:55:10;;;;;;;13.85;9.02;;;;;;;8.81;100.00;97255.78;5025900;28;20056;-63
2021/11/09 11:57:47;;;;;;;13.43;9.40;;;;;;;8.90;100.00;97243.72;5019447;28;20452;-62
2021/11/09 12:00:32;;;;;;;13.40;7.90;;;;;;;8.90;100.00;97247.19;5024823;28;20073;-64
2021/11/09 12:03:02;;;;;;;15.25;8.70;;;;;;;8.98;100.00;97246.63;5016434;28;20061;-60
2021/11/09 12:05:41;;;;;;;18.65;8.45;;;;;;;9.27;100.00;97232.09;5026306;28;20072;-62
2021/11/09 12:08:11;;;;;;;11.93;8.30;;;;;;;8.83;100.00;97221.47;5026760;28;20077;-61
2021/11/09 12:10:49;;;;;;;15.07;8.82;;;;;;;9.45;100.00;97236.91;5027107;28;20084;-56
2021/11/09 12:13:19;;;;;;;16.73;9.18;;;;;;;9.21;100.00;97235.19;5021811;28;20084;-59
2021/11/09 12:15:51;;;;;;;12.75;9.25;;;;;;;9.32;100.00;97230.91;5003430;28;20936;-61
2021/11/09 12:18:41;;;;;;;14.55;8.95;;;;;;;9.45;100.00;97244.81;5022302;28;20073;-60
2021/11/09 12:21:35;;;;;;;16.30;9.10;;;;;;;9.54;100.00;97236.19;5027032;28;20531;-61
2021/11/09 12:24:16;;;;;;;12.68;7.43;;;;;;;9.00;100.00;97249.97;5023302;28;20065;-60
2021/11/09 12:26:57;;;;;;;15.88;8.52;;;;;;;9.46;100.00;97252.59;5026990;28;20530;-57
2021/11/09 12:29:49;;;;;;;18.23;9.23;;;;;;;9.20;100.00;97262.47;5026994;28;20072;-56
2021/11/09 12:32:42;;;;;;;14.77;8.88;;;;;;;9.57;100.00;97245.66;5022841;28;20065;-56
2021/11/09 12:35:25;;;;;;;13.57;7.20;;;;;;;9.37;100.00;97248.03;5026635;28;20543;-59
2021/11/09 12:38:12;;;;;;;14.38;8.85;;;;;;;9.34;100.00;97240.38;5020984;28;20103;-56
2021/11/09 12:40:54;;;;;;;13.25;9.73;;;;;;;9.68;100.00;97235.13;5008582;28;20046;-61
2021/11/09 12:43:25;;;;;;;14.90;9.13;;;;;;;9.26;100.00;97240.13;5028984;28;20085;-60
2021/11/09 12:46:03;;;;;;;12.48;8.27;;;;;;;9.18;100.00;97235.41;5022622;28;20361;-58
2021/11/09 12:48:34;;;;;;;15.82;9.10;;;;;;;9.21;100.00;97237.81;5020724;28;20076;-56
2021/11/09 12:51:05;;;;;;;14.32;9.73;;;;;;;9.63;100.00;97226.72;5026482;28;20080;-59
2021/11/09 12:53:36;;;;;;;16.02;9.95;;;;;;;9.51;100.00;97228.53;5020329;28;20085;-59
2021/11/09 12:56:08;;;;;;;15.13;9.70;;;;;;;10.34;100.00;97232.53;5026925;28;20069;-58
2021/11/09 12:58:47;;;;;;;12.30;8.43;;;;;;;9.45;100.00;97229.84;5026210;28;20108;-60
2021/11/09 13:07:09;;;;;;;14.43;9.00;;;;;;;10.10;100.00;97207.16;5022111;28;19983;-59
2021/11/09 13:09:43;;;;;;;14.70;8.70;;;;;;;10.03;100.00;97210.44;5026257;28;20072;-60
2021/11/09 13:12:14;;;;;;;17.35;9.52;;;;;;;9.89;100.00;97220.25;5025806;28;20464;-58
2021/11/09 13:14:47;;;;;;;14.73;8.98;;;;;;;10.19;100.00;97216.97;5026371;28;20072;-58
2021/11/09 13:17:38;;;;;;;14.23;8.98;;;;;;;10.29;100.00;97213.63;5022779;28;20523;-60
2021/11/09 13:20:17;;;;;;;14.23;8.38;;;;;;;10.22;100.00;97210.63;5030347;28;20077;-59
2021/11/09 13:22:53;;;;;;;14.45;8.18;;;;;;;10.10;100.00;97194.00;5029875;28;20084;-62
2021/11/09 13:25:31;;;;;;;15.13;8.70;;;;;;;10.41;100.00;97202.91;5032444;28;20090;-59
2021/11/09 13:28:02;;;;;;;12.65;8.23;;;;;;;10.41;100.00;97208.19;5027029;28;20723;-59